createdAt,value
2018-05-08T00:02:03.146Z,55.50
2018-05-08T00:04:31.606Z,55.30
2018-05-08T00:07:00.107Z,55.50
2018-05-08T00:09:28.616Z,55.40
2018-05-08T00:11:57.112Z,55.40
2018-05-08T00:14:25.579Z,55.80
2018-05-08T00:16:54.081Z,55.30
2018-05-08T00:19:22.528Z,55.30
2018-05-08T00:21:51.036Z,55.20
2018-05-08T00:24:19.484Z,55.50
2018-05-08T00:26:48.746Z,55.50
2018-05-08T00:29:17.241Z,55.50
2018-05-08T00:31:45.732Z,55.30
2018-05-08T00:34:14.193Z,55.20
2018-05-08T00:36:42.678Z,54.70
2018-05-08T00:39:11.159Z,54.50
2018-05-08T00:41:39.650Z,54.60
2018-05-08T00:44:08.114Z,54.70
2018-05-08T00:46:36.587Z,54.50
2018-05-08T00:49:05.070Z,54.50
2018-05-08T00:51:33.537Z,54.60
2018-05-08T00:54:02.809Z,55.00
2018-05-08T00:56:31.346Z,55.00
2018-05-08T00:58:59.853Z,54.90
2018-05-08T01:01:28.321Z,55.10
2018-05-08T01:03:56.818Z,55.30
2018-05-08T01:06:25.261Z,56.00
2018-05-08T01:08:54.503Z,56.40
2018-05-08T01:11:22.996Z,55.70
2018-05-08T01:13:51.514Z,55.90
2018-05-08T01:16:20.794Z,56.10
2018-05-08T01:18:49.280Z,56.10
2018-05-08T01:21:17.755Z,56.50
2018-05-08T01:23:46.242Z,56.60
2018-05-08T01:26:14.719Z,56.70
2018-05-08T01:28:43.182Z,56.80
2018-05-08T01:31:11.678Z,56.90
2018-05-08T01:33:40.153Z,57.10
2018-05-08T01:36:08.645Z,57.30
2018-05-08T01:38:37.112Z,57.00
2018-05-08T01:41:05.630Z,57.40
2018-05-08T01:43:34.133Z,57.80
2018-05-08T01:46:02.632Z,57.70
2018-05-08T01:48:31.108Z,57.60
2018-05-08T01:50:59.597Z,57.20
2018-05-08T01:53:28.082Z,55.80
2018-05-08T01:55:56.585Z,55.00
2018-05-08T01:58:25.094Z,54.80
2018-05-08T02:00:54.326Z,53.60
2018-05-08T02:03:22.848Z,53.60
2018-05-08T02:05:51.315Z,53.40
2018-05-08T02:08:19.922Z,53.00
2018-05-08T02:10:48.375Z,52.70
2018-05-08T02:13:16.868Z,52.90
2018-05-08T02:15:45.332Z,52.60
2018-05-08T02:18:13.830Z,52.10
2018-05-08T02:20:42.293Z,52.30
2018-05-08T02:23:11.556Z,51.90
2018-05-08T02:25:40.040Z,51.90
2018-05-08T02:28:08.583Z,51.80
2018-05-08T02:30:37.050Z,52.10
2018-05-08T02:33:05.559Z,51.90
2018-05-08T02:35:34.027Z,52.40
2018-05-08T02:38:03.278Z,51.50
2018-05-08T02:40:31.734Z,51.40
2018-05-08T02:43:00.215Z,51.50
2018-05-08T02:45:28.727Z,51.80
2018-05-08T02:47:57.203Z,51.80
2018-05-08T02:50:25.734Z,52.00
2018-05-08T02:52:54.224Z,52.20
2018-05-08T02:55:23.514Z,52.50
2018-05-08T02:57:51.997Z,52.30
2018-05-08T03:00:20.481Z,52.40
2018-05-08T03:02:49.062Z,53.10
2018-05-08T03:05:17.561Z,53.00
2018-05-08T03:07:46.082Z,52.60
2018-05-08T03:10:14.570Z,52.90
2018-05-08T03:12:43.042Z,52.60
2018-05-08T03:15:12.300Z,52.70
2018-05-08T03:17:40.760Z,52.70
2018-05-08T03:20:09.246Z,52.80
2018-05-08T03:22:37.741Z,53.10
2018-05-08T03:25:06.221Z,53.00
2018-05-08T03:27:34.748Z,52.40
2018-05-08T03:30:03.301Z,52.10
2018-05-08T03:32:32.593Z,52.40
2018-05-08T03:35:01.099Z,52.40
2018-05-08T03:37:29.594Z,52.10
2018-05-08T03:39:58.041Z,51.90
2018-05-08T03:42:26.588Z,51.20
2018-05-08T03:44:55.049Z,51.20
2018-05-08T03:47:23.753Z,50.30
2018-05-08T03:49:52.208Z,50.00
2018-05-08T03:52:20.709Z,49.70
2018-05-08T03:54:49.180Z,49.40
2018-05-08T03:57:17.731Z,48.40
2018-05-08T03:59:46.206Z,48.00
2018-05-08T04:02:32.322Z,48.00
2018-05-08T04:05:18.760Z,47.60
2018-05-08T04:08:04.987Z,47.40
2018-05-08T04:10:34.216Z,47.20
2018-05-08T04:13:02.706Z,47.20
2018-05-08T04:15:31.173Z,46.70
2018-05-08T04:17:59.666Z,46.70
2018-05-08T04:20:28.114Z,46.20
2018-05-08T04:22:57.389Z,46.70
2018-05-08T04:25:25.839Z,46.10
2018-05-08T04:27:54.321Z,46.00
2018-05-08T04:30:22.803Z,46.00
2018-05-08T04:32:51.265Z,46.00
2018-05-08T04:35:20.529Z,45.80
2018-05-08T04:37:49.019Z,45.70
2018-05-08T04:40:17.517Z,45.80
2018-05-08T04:42:45.964Z,46.30
2018-05-08T04:45:14.440Z,46.00
2018-05-08T04:47:42.891Z,46.00
2018-05-08T04:50:11.386Z,45.70
2018-05-08T04:52:40.611Z,45.60
2018-05-08T04:55:09.096Z,45.60
2018-05-08T04:57:37.580Z,45.70
2018-05-08T05:00:06.178Z,45.50
2018-05-08T05:02:34.742Z,45.50
2018-05-08T05:05:04.045Z,45.80
2018-05-08T05:07:33.282Z,45.60
2018-05-08T05:10:01.815Z,45.60
2018-05-08T05:12:31.042Z,46.40
2018-05-08T05:14:59.528Z,45.90
2018-05-08T05:17:28.006Z,45.00
2018-05-08T05:19:57.264Z,45.20
2018-05-08T05:22:25.868Z,45.20
2018-05-08T05:24:54.309Z,46.10
2018-05-08T05:27:22.927Z,45.00
2018-05-08T05:29:51.388Z,44.90
2018-05-08T05:32:19.882Z,45.20
2018-05-08T05:34:48.348Z,45.00
2018-05-08T05:37:16.841Z,44.80
2018-05-08T05:39:45.274Z,46.10
2018-05-08T05:42:14.563Z,44.80
2018-05-08T05:44:43.009Z,44.80
2018-05-08T05:47:11.484Z,44.50
2018-05-08T05:49:39.930Z,44.80
2018-05-08T05:52:08.432Z,45.00
2018-05-08T05:54:36.915Z,45.70
2018-05-08T05:57:05.385Z,45.50
2018-05-08T05:59:33.878Z,44.40
2018-05-08T06:02:02.333Z,44.70
2018-05-08T06:04:30.809Z,44.90
2018-05-08T06:06:59.253Z,43.80
2018-05-08T06:09:28.506Z,44.40
2018-05-08T06:11:56.954Z,44.40
2018-05-08T06:14:25.433Z,44.40
2018-05-08T06:16:53.905Z,44.50
2018-05-08T06:19:23.146Z,44.00
2018-05-08T06:21:51.607Z,44.00
2018-05-08T06:24:20.117Z,43.90
2018-05-08T06:26:48.566Z,44.10
2018-05-08T06:29:17.809Z,45.20
2018-05-08T06:31:46.299Z,45.20
2018-05-08T06:34:14.764Z,43.10
2018-05-08T06:36:43.208Z,42.40
2018-05-08T06:39:12.474Z,45.30
2018-05-08T06:41:40.927Z,44.90
2018-05-08T06:44:09.404Z,42.20
2018-05-08T06:46:38.686Z,42.60
2018-05-08T06:49:07.118Z,42.60
2018-05-08T06:51:35.573Z,43.00
2018-05-08T06:54:04.032Z,43.10
2018-05-08T06:56:32.573Z,41.40
2018-05-08T06:59:01.024Z,43.40
2018-05-08T07:01:29.524Z,41.90
2018-05-08T07:03:57.972Z,43.10
2018-05-08T07:06:26.447Z,41.90
2018-05-08T07:08:55.729Z,42.80
2018-05-08T07:11:24.209Z,43.20
2018-05-08T07:13:52.652Z,42.00
2018-05-08T07:16:21.912Z,42.30
2018-05-08T07:18:50.394Z,42.30
2018-05-08T07:21:18.920Z,42.50
2018-05-08T07:23:48.134Z,41.60
2018-05-08T07:26:17.386Z,43.00
2018-05-08T07:28:45.852Z,42.90
2018-05-08T07:31:15.135Z,42.10
2018-05-08T07:33:44.353Z,41.20
2018-05-08T07:36:12.846Z,41.20
2018-05-08T07:38:41.316Z,40.60
2018-05-08T07:41:09.792Z,40.80
2018-05-08T07:43:39.738Z,40.70
2018-05-08T07:46:08.231Z,40.60
2018-05-08T07:48:37.437Z,40.40
2018-05-08T07:51:05.914Z,40.40
2018-05-08T07:53:34.371Z,42.50
2018-05-08T07:56:03.621Z,41.60
2018-05-08T07:58:32.072Z,41.60
2018-05-08T08:01:00.574Z,43.10
2018-05-08T08:03:29.022Z,42.90
2018-05-08T08:05:58.280Z,42.60
2018-05-08T08:08:26.866Z,42.10
2018-05-08T08:10:55.351Z,42.30
2018-05-08T08:13:23.805Z,41.70
2018-05-08T08:15:52.290Z,42.50
2018-05-08T08:18:20.740Z,41.30
2018-05-08T08:20:49.978Z,42.50
2018-05-08T08:23:18.427Z,42.60
2018-05-08T08:25:47.669Z,40.10
2018-05-08T08:28:16.124Z,39.60
2018-05-08T08:30:45.367Z,43.00
2018-05-08T08:33:13.831Z,43.00
2018-05-08T08:35:42.300Z,38.50
2018-05-08T08:38:11.524Z,38.50
2018-05-08T08:40:39.993Z,38.50
2018-05-08T08:43:09.256Z,38.50
2018-05-08T08:45:37.702Z,38.40
2018-05-08T08:48:06.214Z,38.90
2018-05-08T08:50:34.695Z,37.10
2018-05-08T08:53:03.164Z,37.30
2018-05-08T08:55:31.614Z,37.50
2018-05-08T08:58:00.929Z,36.20
2018-05-08T09:00:30.136Z,37.30
2018-05-08T09:02:58.617Z,37.30
2018-05-08T09:05:27.854Z,36.50
2018-05-08T09:07:56.507Z,36.50
2018-05-08T09:10:24.997Z,36.40
2018-05-08T09:12:54.298Z,36.40
2018-05-08T09:15:23.504Z,34.60
2018-05-08T09:17:52.769Z,34.30
2018-05-08T09:20:21.216Z,34.20
2018-05-08T09:22:50.474Z,35.50
2018-05-08T09:25:18.981Z,35.50
2018-05-08T09:27:47.557Z,36.40
2018-05-08T09:30:15.961Z,35.80
2018-05-08T09:32:44.436Z,35.00
2018-05-08T09:35:13.663Z,35.70
2018-05-08T09:37:42.451Z,35.60
2018-05-08T09:40:10.932Z,34.60
2018-05-08T09:42:39.562Z,37.40
2018-05-08T09:45:08.012Z,34.40
2018-05-08T09:47:36.599Z,32.90
2018-05-08T09:50:05.353Z,34.20
2018-05-08T09:52:34.690Z,32.50
2018-05-08T09:55:03.137Z,32.10
2018-05-08T09:57:31.742Z,32.60
2018-05-08T10:00:00.957Z,31.50
2018-05-08T10:02:29.648Z,31.50
2018-05-08T10:04:58.104Z,32.50
2018-05-08T10:07:26.695Z,32.80
2018-05-08T10:09:55.920Z,31.80
2018-05-08T10:12:24.582Z,31.70
2018-05-08T10:14:53.017Z,34.60
2018-05-08T10:17:21.710Z,32.50
2018-05-08T10:19:50.187Z,34.10
2018-05-08T10:22:18.649Z,32.10
2018-05-08T10:24:47.139Z,32.30
2018-05-08T10:27:15.658Z,33.30
2018-05-08T10:29:44.157Z,32.70
2018-05-08T10:32:13.558Z,30.40
2018-05-08T10:34:42.044Z,30.40
2018-05-08T10:37:10.514Z,29.90
2018-05-08T10:39:39.004Z,29.80
2018-05-08T10:42:07.445Z,30.60
2018-05-08T10:44:36.703Z,30.40
2018-05-08T10:47:05.145Z,30.20
2018-05-08T10:49:33.631Z,30.30
2018-05-08T10:52:02.090Z,30.10
2018-05-08T10:54:30.578Z,30.90
2018-05-08T10:56:59.050Z,35.60
2018-05-08T10:59:27.524Z,31.10
2018-05-08T11:01:55.968Z,31.10
2018-05-08T11:04:24.452Z,31.70
2018-05-08T11:06:52.919Z,29.70
2018-05-08T11:09:21.378Z,30.70
2018-05-08T11:11:49.896Z,30.60
2018-05-08T11:14:18.356Z,32.50
2018-05-08T11:16:46.843Z,33.90
2018-05-08T11:19:16.086Z,31.10
2018-05-08T11:21:44.557Z,30.90
2018-05-08T11:24:13.022Z,29.70
2018-05-08T11:26:41.543Z,31.20
2018-05-08T11:29:10.713Z,29.20
2018-05-08T11:31:39.983Z,27.40
2018-05-08T11:34:08.427Z,27.40
2018-05-08T11:36:36.913Z,29.90
2018-05-08T11:39:06.280Z,29.00
2018-05-08T11:41:34.767Z,29.40
2018-05-08T11:44:03.230Z,29.40
2018-05-08T11:46:31.705Z,32.80
2018-05-08T11:49:00.157Z,29.10
2018-05-08T11:51:28.637Z,31.10
2018-05-08T11:53:57.096Z,28.00
2018-05-08T11:56:25.651Z,28.50
2018-05-08T11:58:54.109Z,27.40
2018-05-08T12:01:22.626Z,28.10
2018-05-08T12:03:51.073Z,27.60
2018-05-08T12:06:19.555Z,27.70
2018-05-08T12:08:47.999Z,27.60
2018-05-08T12:11:16.466Z,27.00
2018-05-08T12:13:44.941Z,26.90
2018-05-08T12:16:13.438Z,25.60
2018-05-08T12:18:41.910Z,25.10
2018-05-08T12:21:10.520Z,25.20
2018-05-08T12:23:38.967Z,27.10
2018-05-08T12:26:08.384Z,24.60
2018-05-08T12:28:36.884Z,27.30
2018-05-08T12:31:05.353Z,26.60
2018-05-08T12:33:33.838Z,26.50
2018-05-08T12:36:02.305Z,26.70
2018-05-08T12:38:30.802Z,29.30
2018-05-08T12:41:00.066Z,28.10
2018-05-08T12:43:29.322Z,29.60
2018-05-08T12:45:57.822Z,29.50
2018-05-08T12:48:26.328Z,28.00
2018-05-08T12:50:54.789Z,29.50
2018-05-08T12:53:23.294Z,26.20
2018-05-08T12:55:51.758Z,27.20
2018-05-08T12:58:20.237Z,27.60
2018-05-08T13:00:48.724Z,29.10
2018-05-08T13:03:17.835Z,27.70
2018-05-08T13:05:46.323Z,27.70
2018-05-08T13:08:14.797Z,32.90
2018-05-08T13:10:43.292Z,28.50
2018-05-08T13:13:11.739Z,27.10
2018-05-08T13:15:40.212Z,28.20
2018-05-08T13:18:09.462Z,28.20
2018-05-08T13:20:37.947Z,28.20
2018-05-08T13:23:06.432Z,30.10
2018-05-08T13:25:34.926Z,27.30
2018-05-08T13:28:03.417Z,27.20
2018-05-08T13:30:31.873Z,26.40
2018-05-08T13:33:00.366Z,27.00
2018-05-08T13:35:28.837Z,25.40
2018-05-08T13:37:57.314Z,27.00
2018-05-08T13:40:25.798Z,27.60
2018-05-08T13:42:54.274Z,26.80
2018-05-08T13:45:22.713Z,28.20
2018-05-08T13:47:51.212Z,28.50
2018-05-08T13:50:48.417Z,25.70
2018-05-08T13:53:16.928Z,27.40
2018-05-08T13:55:45.444Z,28.00
2018-05-08T13:58:14.761Z,26.80
2018-05-08T14:00:43.220Z,26.90
2018-05-08T14:03:11.698Z,27.90
2018-05-08T14:05:40.144Z,26.60
2018-05-08T14:08:08.844Z,27.10
2018-05-08T14:10:37.292Z,28.00
2018-05-08T14:13:06.638Z,25.90
2018-05-08T14:15:35.045Z,26.10
2018-05-08T14:18:03.544Z,27.20
2018-05-08T14:20:32.018Z,26.00
2018-05-08T14:23:00.500Z,27.70
2018-05-08T14:25:28.948Z,28.40
2018-05-08T14:27:57.457Z,27.40
2018-05-08T14:30:25.914Z,26.70
2018-05-08T14:32:54.468Z,28.40
2018-05-08T14:35:23.712Z,26.10
2018-05-08T14:37:52.229Z,26.00
2018-05-08T14:40:20.725Z,26.80
2018-05-08T14:42:49.232Z,27.80
2018-05-08T14:45:18.459Z,26.10
2018-05-08T14:47:47.177Z,26.00
2018-05-08T14:50:15.792Z,26.50
2018-05-08T14:52:44.526Z,26.50
2018-05-08T14:55:13.011Z,27.20
2018-05-08T14:57:41.907Z,26.60
2018-05-08T15:00:10.509Z,26.30
2018-05-08T15:02:39.288Z,27.00
2018-05-08T15:05:07.918Z,27.40
2018-05-08T15:07:36.818Z,25.90
2018-05-08T15:10:05.619Z,26.80
2018-05-08T15:12:34.177Z,26.30
2018-05-08T15:15:02.705Z,27.10
2018-05-08T15:17:31.197Z,27.20
2018-05-08T15:20:00.498Z,26.00
2018-05-08T15:22:29.199Z,25.80
2018-05-08T15:24:58.481Z,26.90
2018-05-08T15:27:27.341Z,26.90
2018-05-08T15:29:56.606Z,26.40
2018-05-08T15:32:27.525Z,26.50
2018-05-08T15:34:56.010Z,26.50
2018-05-08T15:37:24.474Z,26.20
2018-05-08T15:39:52.996Z,26.00
2018-05-08T15:42:22.212Z,26.50
2018-05-08T15:44:51.478Z,27.40
2018-05-08T15:47:19.976Z,27.40
2018-05-08T15:49:49.312Z,27.10
2018-05-08T15:52:17.763Z,26.70
2018-05-08T15:54:46.238Z,26.40
2018-05-08T15:57:14.799Z,26.00
2018-05-08T15:59:43.292Z,26.10
2018-05-08T16:02:11.870Z,25.90
2018-05-08T16:04:40.290Z,26.70
2018-05-08T16:07:09.547Z,26.60
2018-05-08T16:09:41.538Z,26.00
2018-05-08T16:12:10.828Z,26.50
2018-05-08T16:14:39.325Z,26.50
2018-05-08T16:17:07.816Z,26.10
2018-05-08T16:19:36.270Z,26.20
2018-05-08T16:22:04.791Z,25.80
2018-05-08T16:24:33.317Z,26.40
2018-05-08T16:27:03.490Z,25.90
2018-05-08T16:29:32.004Z,25.90
2018-05-08T16:32:01.343Z,26.50
2018-05-08T16:34:29.985Z,26.50
2018-05-08T16:36:58.578Z,26.50
2018-05-08T16:39:27.187Z,25.50
2018-05-08T16:41:56.566Z,25.90
2018-05-08T16:44:25.230Z,26.00
2018-05-08T16:46:54.013Z,26.30
2018-05-08T16:49:23.602Z,26.00
2018-05-08T16:51:52.141Z,26.10
2018-05-08T16:54:21.296Z,26.70
2018-05-08T16:56:50.580Z,26.50
2018-05-08T16:59:22.647Z,26.50
2018-05-08T17:01:51.174Z,25.80
2018-05-08T17:04:19.936Z,25.90
2018-05-08T17:06:51.872Z,26.40
2018-05-08T17:09:20.383Z,26.00
2018-05-08T17:11:49.672Z,26.20
2018-05-08T17:14:18.133Z,26.20
2018-05-08T17:16:49.801Z,25.60
2018-05-08T17:19:19.310Z,25.50
2018-05-08T17:21:47.795Z,25.40
2018-05-08T17:24:16.275Z,26.60
2018-05-08T17:26:44.804Z,25.70
2018-05-08T17:29:14.081Z,26.00
2018-05-08T17:31:42.605Z,26.00
2018-05-08T17:34:11.990Z,26.10
2018-05-08T17:36:40.614Z,26.00
2018-05-08T17:39:09.117Z,26.30
2018-05-08T17:41:38.765Z,27.00
2018-05-08T17:44:10.149Z,26.90
2018-05-08T17:49:23.295Z,26.40
2018-05-08T17:51:54.970Z,26.50
2018-05-08T17:54:24.296Z,26.50
2018-05-08T17:56:53.931Z,27.10
2018-05-08T17:59:22.419Z,27.10
2018-05-08T18:01:50.950Z,27.00
2018-05-08T18:04:20.379Z,27.40
2018-05-08T18:06:48.802Z,27.40
2018-05-08T18:09:17.274Z,27.20
2018-05-08T18:11:45.798Z,27.00
2018-05-08T18:14:15.057Z,27.10
2018-05-08T18:16:43.616Z,27.00
2018-05-08T18:19:12.098Z,26.80
2018-05-08T18:21:40.597Z,27.60
2018-05-08T18:24:09.188Z,27.60
2018-05-08T18:26:37.636Z,27.10
2018-05-08T18:29:06.966Z,27.80
2018-05-08T18:31:35.428Z,27.80
2018-05-08T18:34:04.762Z,27.90
2018-05-08T18:36:33.680Z,27.80
2018-05-08T18:39:02.209Z,27.60
2018-05-08T18:41:31.575Z,27.90
2018-05-08T18:44:00.085Z,27.90
2018-05-08T18:46:29.372Z,28.90
2018-05-08T18:48:57.858Z,28.80
2018-05-08T18:51:26.363Z,28.50
2018-05-08T18:53:54.858Z,28.90
2018-05-08T18:56:24.186Z,29.00
2018-05-08T18:58:52.718Z,28.90
2018-05-08T19:01:21.197Z,29.00
2018-05-08T19:03:49.717Z,29.20
2018-05-08T19:06:18.972Z,30.00
2018-05-08T19:08:47.476Z,30.00
2018-05-08T19:11:21.493Z,30.30
2018-05-08T19:13:50.246Z,31.80
2018-05-08T19:16:19.732Z,33.20
2018-05-08T19:18:55.572Z,34.60
2018-05-08T19:21:24.131Z,34.50
2018-05-08T19:23:58.169Z,35.20
2018-05-08T19:26:27.193Z,36.20
2018-05-08T19:29:01.124Z,35.00
2018-05-08T19:31:29.614Z,35.00
2018-05-08T19:33:58.154Z,34.70
2018-05-08T19:36:32.286Z,33.80
2018-05-08T19:39:00.925Z,34.00
2018-05-08T19:41:29.634Z,33.90
2018-05-08T19:43:58.118Z,33.70
2018-05-08T19:46:26.625Z,34.40
2018-05-08T19:48:55.892Z,35.90
2018-05-08T19:51:24.356Z,35.80
2018-05-08T19:53:52.854Z,36.50
2018-05-08T19:56:21.338Z,37.10
2018-05-08T19:58:49.825Z,37.60
2018-05-08T20:01:18.313Z,38.00
2018-05-08T20:03:46.815Z,39.00
2018-05-08T20:06:15.664Z,39.00
2018-05-08T20:08:44.137Z,39.50
2018-05-08T20:11:13.516Z,40.40
2018-05-08T20:13:42.054Z,40.40
2018-05-08T20:16:10.564Z,40.50
2018-05-08T20:18:39.046Z,41.10
2018-05-08T20:21:07.567Z,41.40
2018-05-08T20:23:36.840Z,42.30
2018-05-08T20:26:05.358Z,42.20
2018-05-08T20:28:33.857Z,42.10
2018-05-08T20:31:03.132Z,42.60
2018-05-08T20:33:31.662Z,42.50
2018-05-08T20:36:00.201Z,42.70
2018-05-08T20:38:28.705Z,42.80
2018-05-08T20:40:57.184Z,42.80
2018-05-08T20:43:25.653Z,43.60
2018-05-08T20:45:54.147Z,43.50
2018-05-08T20:48:22.607Z,43.80
2018-05-08T20:50:51.103Z,44.40
2018-05-08T20:53:19.598Z,44.70
2018-05-08T20:55:48.078Z,45.00
2018-05-08T20:58:17.345Z,46.00
2018-05-08T21:00:45.841Z,46.00
2018-05-08T21:03:14.372Z,45.40
2018-05-08T21:05:42.907Z,45.70
2018-05-08T21:08:11.363Z,45.70
2018-05-08T21:10:39.917Z,45.70
2018-05-08T21:13:08.448Z,46.20
2018-05-08T21:15:36.926Z,45.90
2018-05-08T21:18:08.638Z,46.70
2018-05-08T21:20:37.131Z,46.60
2018-05-08T21:23:05.619Z,46.50
2018-05-08T21:25:34.118Z,46.40
2018-05-08T21:28:08.022Z,46.40
2018-05-08T21:30:41.977Z,46.50
2018-05-08T21:33:10.439Z,46.70
2018-05-08T21:35:39.716Z,47.30
2018-05-08T21:38:08.194Z,47.30
2018-05-08T21:40:36.835Z,47.20
2018-05-08T21:43:06.072Z,47.10
2018-05-08T21:45:34.535Z,47.10
2018-05-08T21:48:03.044Z,47.30
2018-05-08T21:50:31.646Z,47.50
2018-05-08T21:53:00.167Z,47.30
2018-05-08T21:55:28.688Z,47.80
2018-05-08T21:57:57.188Z,48.10
2018-05-08T22:00:25.690Z,48.60
2018-05-08T22:02:54.257Z,48.70
2018-05-08T22:05:22.766Z,48.80
2018-05-08T22:07:51.361Z,48.30
2018-05-08T22:10:19.900Z,48.50
2018-05-08T22:12:48.469Z,48.40
2018-05-08T22:15:16.972Z,48.70
2018-05-08T22:17:45.508Z,48.60
2018-05-08T22:20:13.991Z,48.50
2018-05-08T22:22:42.472Z,48.60
2018-05-08T22:25:10.958Z,48.70
2018-05-08T22:27:39.434Z,49.10
2018-05-08T22:30:07.935Z,49.20
2018-05-08T22:32:36.441Z,50.00
2018-05-08T22:35:04.962Z,49.90
2018-05-08T22:37:33.543Z,49.60
2018-05-08T22:40:02.780Z,51.30
2018-05-08T22:42:31.272Z,50.60
2018-05-08T22:44:59.776Z,51.10
2018-05-08T22:47:28.290Z,51.00
2018-05-08T22:49:57.656Z,51.70
2018-05-08T22:52:26.175Z,51.60
2018-05-08T22:54:55.446Z,51.30
2018-05-08T22:57:24.032Z,51.30
2018-05-08T22:59:53.274Z,51.40
2018-05-08T23:02:22.530Z,50.80
2018-05-08T23:04:51.007Z,50.80
2018-05-08T23:07:19.476Z,50.70
2018-05-08T23:09:47.995Z,50.80
2018-05-08T23:12:16.481Z,50.80
2018-05-08T23:14:44.964Z,50.80
2018-05-08T23:17:13.456Z,51.10
2018-05-08T23:19:42.025Z,51.00
2018-05-08T23:22:10.499Z,51.30
2018-05-08T23:24:38.966Z,51.10
2018-05-08T23:27:07.434Z,51.50
2018-05-08T23:29:36.681Z,52.50
2018-05-08T23:32:05.137Z,52.40
2018-05-08T23:34:33.635Z,52.30
2018-05-08T23:37:02.076Z,52.10
2018-05-08T23:39:30.566Z,51.90
2018-05-08T23:41:59.809Z,52.60
2018-05-08T23:44:28.328Z,52.60
2018-05-08T23:46:56.795Z,52.30
2018-05-08T23:49:25.282Z,52.50
2018-05-08T23:51:53.837Z,52.30
2018-05-08T23:54:22.293Z,52.00
2018-05-08T23:56:50.745Z,52.20
2018-05-08T23:59:19.256Z,52.60
